sensor_id;sensor_type;location;lat;lon;timestamp;temperature;humidity
6696;DHT22;3385;48.928;10.330;2023-03-29T00:00:25;4.40;99.90
6696;DHT22;3385;48.928;10.330;2023-03-29T00:02:52;4.20;99.90
6696;DHT22;3385;48.928;10.330;2023-03-29T00:05:21;4.40;99.90
6696;DHT22;3385;48.928;10.330;2023-03-29T00:07:50;4.40;99.90
6696;DHT22;3385;48.928;10.330;2023-03-29T00:10:26;4.10;99.90
6696;DHT22;3385;48.928;10.330;2023-03-29T00:12:52;4.20;99.90
6696;DHT22;3385;48.928;10.330;2023-03-29T00:15:19;4.00;99.90
6696;DHT22;3385;48.928;10.330;2023-03-29T00:17:45;4.00;99.90
6696;DHT22;3385;48.928;10.330;2023-03-29T00:20:11;3.80;99.90
6696;DHT22;3385;48.928;10.330;2023-03-29T00:22:39;3.60;99.90
6696;DHT22;3385;48.928;10.330;2023-03-29T00:25:07;3.80;99.90
6696;DHT22;3385;48.928;10.330;2023-03-29T00:27:33;3.50;99.90
6696;DHT22;3385;48.928;10.330;2023-03-29T00:29:59;3.50;99.90
6696;DHT22;3385;48.928;10.330;2023-03-29T00:32:26;3.60;99.90
6696;DHT22;3385;48.928;10.330;2023-03-29T00:34:52;3.40;99.90
6696;DHT22;3385;48.928;10.330;2023-03-29T00:37:19;3.20;99.90
6696;DHT22;3385;48.928;10.330;2023-03-29T00:39:45;3.40;99.90
6696;DHT22;3385;48.928;10.330;2023-03-29T00:42:15;3.40;99.90
6696;DHT22;3385;48.928;10.330;2023-03-29T00:52:38;3.10;99.90
6696;DHT22;3385;48.928;10.330;2023-03-29T00:55:09;3.10;99.90
6696;DHT22;3385;48.928;10.330;2023-03-29T00:57:38;3.40;99.90
6696;DHT22;3385;48.928;10.330;2023-03-29T01:00:06;3.10;99.90
6696;DHT22;3385;48.928;10.330;2023-03-29T01:02:35;3.30;99.90
6696;DHT22;3385;48.928;10.330;2023-03-29T01:05:17;3.10;99.90
6696;DHT22;3385;48.928;10.330;2023-03-29T01:07:56;3.40;99.90
6696;DHT22;3385;48.928;10.330;2023-03-29T01:13:05;3.30;99.90
6696;DHT22;3385;48.928;10.330;2023-03-29T01:15:34;3.40;99.90
6696;DHT22;3385;48.928;10.330;2023-03-29T01:18:01;3.30;99.90
6696;DHT22;3385;48.928;10.330;2023-03-29T01:28:39;3.20;99.90
6696;DHT22;3385;48.928;10.330;2023-03-29T01:31:18;3.50;99.90
6696;DHT22;3385;48.928;10.330;2023-03-29T01:33:52;3.40;99.90
6696;DHT22;3385;48.928;10.330;2023-03-29T01:36:42;3.10;99.90
6696;DHT22;3385;48.928;10.330;2023-03-29T01:39:09;3.40;99.90
6696;DHT22;3385;48.928;10.330;2023-03-29T01:44:58;3.20;99.90
6696;DHT22;3385;48.928;10.330;2023-03-29T01:47:16;3.10;99.90
6696;DHT22;3385;48.928;10.330;2023-03-29T01:52:19;3.30;99.90
6696;DHT22;3385;48.928;10.330;2023-03-29T01:54:52;3.30;99.90
6696;DHT22;3385;48.928;10.330;2023-03-29T01:57:20;3.10;99.90
6696;DHT22;3385;48.928;10.330;2023-03-29T01:59:47;3.30;99.90
6696;DHT22;3385;48.928;10.330;2023-03-29T02:02:15;3.10;99.90
6696;DHT22;3385;48.928;10.330;2023-03-29T02:04:48;3.20;99.90
6696;DHT22;3385;48.928;10.330;2023-03-29T02:07:19;3.10;99.90
6696;DHT22;3385;48.928;10.330;2023-03-29T02:09:47;3.20;99.90
6696;DHT22;3385;48.928;10.330;2023-03-29T02:12:14;3.40;99.90
6696;DHT22;3385;48.928;10.330;2023-03-29T02:14:41;3.30;99.90
6696;DHT22;3385;48.928;10.330;2023-03-29T02:17:18;3.20;99.90
6696;DHT22;3385;48.928;10.330;2023-03-29T02:19:46;3.30;99.90
6696;DHT22;3385;48.928;10.330;2023-03-29T02:22:24;3.40;99.90
6696;DHT22;3385;48.928;10.330;2023-03-29T02:24:54;3.20;99.90
6696;DHT22;3385;48.928;10.330;2023-03-29T02:27:25;3.50;99.90
6696;DHT22;3385;48.928;10.330;2023-03-29T02:29:52;3.50;99.90
6696;DHT22;3385;48.928;10.330;2023-03-29T02:32:23;3.10;99.90
6696;DHT22;3385;48.928;10.330;2023-03-29T02:35:03;3.40;99.90
6696;DHT22;3385;48.928;10.330;2023-03-29T02:37:31;3.50;99.90
6696;DHT22;3385;48.928;10.330;2023-03-29T02:39:59;3.20;99.90
6696;DHT22;3385;48.928;10.330;2023-03-29T02:42:26;3.50;99.90
6696;DHT22;3385;48.928;10.330;2023-03-29T02:44:55;3.50;99.90
6696;DHT22;3385;48.928;10.330;2023-03-29T02:49:52;3.50;99.90
6696;DHT22;3385;48.928;10.330;2023-03-29T02:52:32;3.40;99.90
6696;DHT22;3385;48.928;10.330;2023-03-29T02:55:00;3.40;99.90
6696;DHT22;3385;48.928;10.330;2023-03-29T02:57:28;3.60;99.90
6696;DHT22;3385;48.928;10.330;2023-03-29T02:59:55;3.70;99.90
6696;DHT22;3385;48.928;10.330;2023-03-29T03:02:22;3.60;99.90
6696;DHT22;3385;48.928;10.330;2023-03-29T03:04:50;3.50;99.90
6696;DHT22;3385;48.928;10.330;2023-03-29T03:07:16;3.70;99.90
6696;DHT22;3385;48.928;10.330;2023-03-29T03:09:44;3.90;99.90
6696;DHT22;3385;48.928;10.330;2023-03-29T03:12:11;3.70;99.90
6696;DHT22;3385;48.928;10.330;2023-03-29T03:14:37;3.80;99.90
6696;DHT22;3385;48.928;10.330;2023-03-29T06:15:38;6.10;99.90
6696;DHT22;3385;48.928;10.330;2023-03-29T06:18:04;5.70;99.90
6696;DHT22;3385;48.928;10.330;2023-03-29T06:20:30;5.90;99.90
6696;DHT22;3385;48.928;10.330;2023-03-29T06:22:57;6.00;99.90
6696;DHT22;3385;48.928;10.330;2023-03-29T06:25:23;6.20;99.90
6696;DHT22;3385;48.928;10.330;2023-03-29T06:27:49;6.60;99.90
6696;DHT22;3385;48.928;10.330;2023-03-29T06:30:16;6.50;99.90
6696;DHT22;3385;48.928;10.330;2023-03-29T06:32:43;6.50;99.90
6696;DHT22;3385;48.928;10.330;2023-03-29T06:35:10;6.50;99.90
6696;DHT22;3385;48.928;10.330;2023-03-29T06:37:36;6.70;99.90
6696;DHT22;3385;48.928;10.330;2023-03-29T06:40:04;6.70;99.90
6696;DHT22;3385;48.928;10.330;2023-03-29T06:42:31;6.80;99.90
6696;DHT22;3385;48.928;10.330;2023-03-29T06:44:57;6.90;99.90
6696;DHT22;3385;48.928;10.330;2023-03-29T06:47:23;6.90;99.90
6696;DHT22;3385;48.928;10.330;2023-03-29T06:49:55;6.80;99.90
6696;DHT22;3385;48.928;10.330;2023-03-29T06:52:21;7.00;99.90
6696;DHT22;3385;48.928;10.330;2023-03-29T06:54:46;7.40;99.90
6696;DHT22;3385;48.928;10.330;2023-03-29T06:57:12;7.40;99.90
6696;DHT22;3385;48.928;10.330;2023-03-29T06:59:38;7.10;99.90
6696;DHT22;3385;48.928;10.330;2023-03-29T07:02:04;7.10;99.90
6696;DHT22;3385;48.928;10.330;2023-03-29T07:04:30;7.20;99.90
6696;DHT22;3385;48.928;10.330;2023-03-29T07:06:56;7.30;99.90
6696;DHT22;3385;48.928;10.330;2023-03-29T07:09:29;7.40;99.90
6696;DHT22;3385;48.928;10.330;2023-03-29T07:11:58;7.50;99.90
6696;DHT22;3385;48.928;10.330;2023-03-29T07:14:25;7.70;99.90
6696;DHT22;3385;48.928;10.330;2023-03-29T07:16:56;8.00;99.90
6696;DHT22;3385;48.928;10.330;2023-03-29T07:19:25;8.10;99.90
6696;DHT22;3385;48.928;10.330;2023-03-29T07:21:54;8.50;99.90
6696;DHT22;3385;48.928;10.330;2023-03-29T07:24:20;8.50;99.90
6696;DHT22;3385;48.928;10.330;2023-03-29T07:26:47;8.60;99.90
6696;DHT22;3385;48.928;10.330;2023-03-29T07:29:13;9.00;99.90
6696;DHT22;3385;48.928;10.330;2023-03-29T07:31:40;8.80;99.90
6696;DHT22;3385;48.928;10.330;2023-03-29T07:34:08;9.00;99.90
6696;DHT22;3385;48.928;10.330;2023-03-29T07:36:38;8.80;99.90
6696;DHT22;3385;48.928;10.330;2023-03-29T07:39:05;9.00;99.90
6696;DHT22;3385;48.928;10.330;2023-03-29T07:41:31;8.70;99.90
6696;DHT22;3385;48.928;10.330;2023-03-29T07:43:57;8.90;99.90
6696;DHT22;3385;48.928;10.330;2023-03-29T07:46:29;8.90;99.90
6696;DHT22;3385;48.928;10.330;2023-03-29T07:48:55;9.10;99.90
6696;DHT22;3385;48.928;10.330;2023-03-29T07:51:21;9.30;99.90
6696;DHT22;3385;48.928;10.330;2023-03-29T07:53:47;9.80;99.90
6696;DHT22;3385;48.928;10.330;2023-03-29T07:56:14;9.50;99.90
6696;DHT22;3385;48.928;10.330;2023-03-29T07:58:40;9.50;99.90
6696;DHT22;3385;48.928;10.330;2023-03-29T08:01:06;9.40;99.90
6696;DHT22;3385;48.928;10.330;2023-03-29T08:03:33;9.50;99.90
6696;DHT22;3385;48.928;10.330;2023-03-29T08:06:02;9.70;99.90
6696;DHT22;3385;48.928;10.330;2023-03-29T08:08:28;9.40;99.90
6696;DHT22;3385;48.928;10.330;2023-03-29T08:10:54;9.60;99.90
6696;DHT22;3385;48.928;10.330;2023-03-29T08:13:20;9.50;99.90
6696;DHT22;3385;48.928;10.330;2023-03-29T08:15:46;9.40;99.90
6696;DHT22;3385;48.928;10.330;2023-03-29T08:18:13;9.90;99.90
6696;DHT22;3385;48.928;10.330;2023-03-29T08:20:39;9.50;99.90
6696;DHT22;3385;48.928;10.330;2023-03-29T08:23:05;9.50;99.90
6696;DHT22;3385;48.928;10.330;2023-03-29T08:25:31;9.40;99.90
6696;DHT22;3385;48.928;10.330;2023-03-29T08:27:57;9.20;99.90
6696;DHT22;3385;48.928;10.330;2023-03-29T08:30:23;9.40;99.90
6696;DHT22;3385;48.928;10.330;2023-03-29T08:32:49;9.30;99.90
6696;DHT22;3385;48.928;10.330;2023-03-29T08:35:15;9.50;99.90
6696;DHT22;3385;48.928;10.330;2023-03-29T08:37:41;9.40;99.90
6696;DHT22;3385;48.928;10.330;2023-03-29T08:40:11;9.70;99.90
6696;DHT22;3385;48.928;10.330;2023-03-29T08:43:08;9.60;99.90
6696;DHT22;3385;48.928;10.330;2023-03-29T08:46:10;9.90;99.90
6696;DHT22;3385;48.928;10.330;2023-03-29T08:48:42;9.90;99.90
6696;DHT22;3385;48.928;10.330;2023-03-29T08:51:33;9.90;99.90
6696;DHT22;3385;48.928;10.330;2023-03-29T08:54:04;10.00;99.90
6696;DHT22;3385;48.928;10.330;2023-03-29T08:56:33;10.00;99.90
6696;DHT22;3385;48.928;10.330;2023-03-29T08:59:00;10.30;99.90
6696;DHT22;3385;48.928;10.330;2023-03-29T09:01:30;9.90;99.90
6696;DHT22;3385;48.928;10.330;2023-03-29T09:04:13;9.90;99.90
6696;DHT22;3385;48.928;10.330;2023-03-29T09:06:40;10.10;99.90
6696;DHT22;3385;48.928;10.330;2023-03-29T09:09:14;10.40;99.90
6696;DHT22;3385;48.928;10.330;2023-03-29T09:28:04;11.20;99.90
6696;DHT22;3385;48.928;10.330;2023-03-29T09:38:42;11.50;99.90
6696;DHT22;3385;48.928;10.330;2023-03-29T09:41:29;11.50;99.90
6696;DHT22;3385;48.928;10.330;2023-03-29T09:43:59;11.40;99.90
6696;DHT22;3385;48.928;10.330;2023-03-29T09:46:36;11.50;99.90
6696;DHT22;3385;48.928;10.330;2023-03-29T09:49:05;11.90;99.90
6696;DHT22;3385;48.928;10.330;2023-03-29T09:51:35;12.00;99.90
6696;DHT22;3385;48.928;10.330;2023-03-29T09:54:01;12.20;99.90
6696;DHT22;3385;48.928;10.330;2023-03-29T09:56:28;12.20;99.90
6696;DHT22;3385;48.928;10.330;2023-03-29T09:58:54;12.60;99.90
6696;DHT22;3385;48.928;10.330;2023-03-29T10:01:20;12.50;99.90
6696;DHT22;3385;48.928;10.330;2023-03-29T10:03:51;12.60;99.90
6696;DHT22;3385;48.928;10.330;2023-03-29T10:06:19;12.20;99.90
6696;DHT22;3385;48.928;10.330;2023-03-29T10:08:53;11.90;99.90
6696;DHT22;3385;48.928;10.330;2023-03-29T10:11:30;11.70;99.90
6696;DHT22;3385;48.928;10.330;2023-03-29T10:14:01;11.60;99.90
6696;DHT22;3385;48.928;10.330;2023-03-29T10:16:39;11.60;99.90
6696;DHT22;3385;48.928;10.330;2023-03-29T10:19:31;11.70;99.90
6696;DHT22;3385;48.928;10.330;2023-03-29T10:22:01;11.80;99.90
6696;DHT22;3385;48.928;10.330;2023-03-29T10:24:28;12.00;99.90
6696;DHT22;3385;48.928;10.330;2023-03-29T10:27:01;12.20;99.90
6696;DHT22;3385;48.928;10.330;2023-03-29T10:29:40;12.50;99.90
6696;DHT22;3385;48.928;10.330;2023-03-29T10:34:50;12.70;99.90
6696;DHT22;3385;48.928;10.330;2023-03-29T10:37:17;12.60;99.90
6696;DHT22;3385;48.928;10.330;2023-03-29T10:39:46;12.30;99.90
6696;DHT22;3385;48.928;10.330;2023-03-29T10:42:15;12.20;99.90
6696;DHT22;3385;48.928;10.330;2023-03-29T10:44:42;11.90;99.90
6696;DHT22;3385;48.928;10.330;2023-03-29T10:47:18;12.30;99.90
6696;DHT22;3385;48.928;10.330;2023-03-29T10:49:53;12.30;99.90
6696;DHT22;3385;48.928;10.330;2023-03-29T10:52:19;12.80;99.90
6696;DHT22;3385;48.928;10.330;2023-03-29T10:54:47;13.30;99.90
6696;DHT22;3385;48.928;10.330;2023-03-29T10:57:18;14.00;99.90
6696;DHT22;3385;48.928;10.330;2023-03-29T11:35:26;14.90;99.90
6696;DHT22;3385;48.928;10.330;2023-03-29T11:46:07;14.50;99.90
6696;DHT22;3385;48.928;10.330;2023-03-29T11:48:42;14.50;99.90
6696;DHT22;3385;48.928;10.330;2023-03-29T11:51:25;14.60;99.90
6696;DHT22;3385;48.928;10.330;2023-03-29T11:54:03;14.80;99.90
6696;DHT22;3385;48.928;10.330;2023-03-29T11:56:43;15.30;99.90
6696;DHT22;3385;48.928;10.330;2023-03-29T11:59:22;16.70;99.90
6696;DHT22;3385;48.928;10.330;2023-03-29T12:01:53;17.60;99.90
6696;DHT22;3385;48.928;10.330;2023-03-29T12:04:28;18.00;99.90
6696;DHT22;3385;48.928;10.330;2023-03-29T12:07:16;18.30;99.90
6696;DHT22;3385;48.928;10.330;2023-03-29T12:09:51;18.80;99.90
6696;DHT22;3385;48.928;10.330;2023-03-29T12:12:45;18.50;99.90
6696;DHT22;3385;48.928;10.330;2023-03-29T12:15:14;18.00;99.90
6696;DHT22;3385;48.928;10.330;2023-03-29T12:18:12;17.40;99.90
6696;DHT22;3385;48.928;10.330;2023-03-29T12:20:41;16.90;99.90
6696;DHT22;3385;48.928;10.330;2023-03-29T12:23:09;16.40;99.90
6696;DHT22;3385;48.928;10.330;2023-03-29T12:31:10;15.50;99.90
6696;DHT22;3385;48.928;10.330;2023-03-29T12:39:27;15.40;99.90
6696;DHT22;3385;48.928;10.330;2023-03-29T12:42:16;15.50;99.90
6696;DHT22;3385;48.928;10.330;2023-03-29T12:44:49;15.70;99.90
6696;DHT22;3385;48.928;10.330;2023-03-29T12:47:22;15.80;99.90
6696;DHT22;3385;48.928;10.330;2023-03-29T12:49:56;16.30;99.90
6696;DHT22;3385;48.928;10.330;2023-03-29T12:52:32;16.90;99.90
6696;DHT22;3385;48.928;10.330;2023-03-29T12:55:01;17.60;99.90
6696;DHT22;3385;48.928;10.330;2023-03-29T12:57:42;18.50;99.90
6696;DHT22;3385;48.928;10.330;2023-03-29T13:00:19;19.20;99.90
6696;DHT22;3385;48.928;10.330;2023-03-29T13:03:03;19.40;99.90
6696;DHT22;3385;48.928;10.330;2023-03-29T13:05:33;20.10;99.90
6696;DHT22;3385;48.928;10.330;2023-03-29T13:08:18;19.90;99.90
6696;DHT22;3385;48.928;10.330;2023-03-29T13:10:51;20.40;99.90
6696;DHT22;3385;48.928;10.330;2023-03-29T13:13:31;19.70;99.90
6696;DHT22;3385;48.928;10.330;2023-03-29T13:16:31;18.70;99.90
6696;DHT22;3385;48.928;10.330;2023-03-29T13:35:44;15.30;99.90
6696;DHT22;3385;48.928;10.330;2023-03-29T13:38:21;15.20;99.90
6696;DHT22;3385;48.928;10.330;2023-03-29T13:41:42;15.30;99.90
6696;DHT22;3385;48.928;10.330;2023-03-29T13:46:48;15.30;99.90
6696;DHT22;3385;48.928;10.330;2023-03-29T13:49:23;15.40;99.90
6696;DHT22;3385;48.928;10.330;2023-03-29T13:57:51;15.10;99.90
6696;DHT22;3385;48.928;10.330;2023-03-29T14:00:21;14.90;99.90
6696;DHT22;3385;48.928;10.330;2023-03-29T14:05:37;14.60;99.90
6696;DHT22;3385;48.928;10.330;2023-03-29T14:10:43;14.50;99.90
6696;DHT22;3385;48.928;10.330;2023-03-29T14:13:16;14.40;99.90
6696;DHT22;3385;48.928;10.330;2023-03-29T14:15:52;14.40;99.90
6696;DHT22;3385;48.928;10.330;2023-03-29T14:18:22;14.20;99.90
6696;DHT22;3385;48.928;10.330;2023-03-29T14:20:50;14.60;99.90
6696;DHT22;3385;48.928;10.330;2023-03-29T14:23:24;14.60;99.90
6696;DHT22;3385;48.928;10.330;2023-03-29T14:25:51;14.80;99.90
6696;DHT22;3385;48.928;10.330;2023-03-29T14:30:47;14.90;99.90
6696;DHT22;3385;48.928;10.330;2023-03-29T14:33:22;15.00;99.90
6696;DHT22;3385;48.928;10.330;2023-03-29T14:35:50;15.30;99.90
6696;DHT22;3385;48.928;10.330;2023-03-29T14:38:18;15.60;99.90
6696;DHT22;3385;48.928;10.330;2023-03-29T14:40:44;15.60;99.90
6696;DHT22;3385;48.928;10.330;2023-03-29T14:43:15;15.70;99.90
6696;DHT22;3385;48.928;10.330;2023-03-29T14:45:42;15.80;99.90
6696;DHT22;3385;48.928;10.330;2023-03-29T14:48:11;15.90;99.90
6696;DHT22;3385;48.928;10.330;2023-03-29T14:50:38;15.90;99.90
6696;DHT22;3385;48.928;10.330;2023-03-29T14:53:04;16.00;99.90
6696;DHT22;3385;48.928;10.330;2023-03-29T14:55:31;16.00;99.90
6696;DHT22;3385;48.928;10.330;2023-03-29T14:57:57;16.00;99.90
6696;DHT22;3385;48.928;10.330;2023-03-29T15:00:47;16.10;99.90
6696;DHT22;3385;48.928;10.330;2023-03-29T15:03:13;16.00;99.90
6696;DHT22;3385;48.928;10.330;2023-03-29T15:05:42;16.00;99.90
6696;DHT22;3385;48.928;10.330;2023-03-29T15:08:32;15.60;99.90
6696;DHT22;3385;48.928;10.330;2023-03-29T15:10:59;15.50;99.90
6696;DHT22;3385;48.928;10.330;2023-03-29T15:13:26;15.40;99.90
6696;DHT22;3385;48.928;10.330;2023-03-29T15:16:00;15.30;99.90
6696;DHT22;3385;48.928;10.330;2023-03-29T15:18:32;15.00;99.90
6696;DHT22;3385;48.928;10.330;2023-03-29T15:21:00;14.90;99.90
6696;DHT22;3385;48.928;10.330;2023-03-29T15:24:16;14.70;99.90
6696;DHT22;3385;48.928;10.330;2023-03-29T15:26:35;14.50;99.90
6696;DHT22;3385;48.928;10.330;2023-03-29T15:29:16;14.70;99.90
6696;DHT22;3385;48.928;10.330;2023-03-29T15:31:55;14.80;99.90
6696;DHT22;3385;48.928;10.330;2023-03-29T15:34:26;14.90;99.90
6696;DHT22;3385;48.928;10.330;2023-03-29T15:36:53;14.90;99.90
6696;DHT22;3385;48.928;10.330;2023-03-29T15:39:19;14.80;99.90
6696;DHT22;3385;48.928;10.330;2023-03-29T15:41:48;14.70;99.90
6696;DHT22;3385;48.928;10.330;2023-03-29T15:44:15;14.40;99.90
6696;DHT22;3385;48.928;10.330;2023-03-29T15:46:43;14.40;99.90
6696;DHT22;3385;48.928;10.330;2023-03-29T15:49:10;14.30;99.90
6696;DHT22;3385;48.928;10.330;2023-03-29T15:51:36;14.40;99.90
6696;DHT22;3385;48.928;10.330;2023-03-29T15:54:02;14.40;99.90
6696;DHT22;3385;48.928;10.330;2023-03-29T15:56:28;14.40;99.90
6696;DHT22;3385;48.928;10.330;2023-03-29T15:58:56;14.40;99.90
6696;DHT22;3385;48.928;10.330;2023-03-29T16:01:29;14.30;99.90
6696;DHT22;3385;48.928;10.330;2023-03-29T16:04:21;14.30;99.90
6696;DHT22;3385;48.928;10.330;2023-03-29T16:06:49;14.20;99.90
6696;DHT22;3385;48.928;10.330;2023-03-29T16:09:15;14.00;99.90
6696;DHT22;3385;48.928;10.330;2023-03-29T16:11:42;14.00;99.90
6696;DHT22;3385;48.928;10.330;2023-03-29T16:14:25;13.90;99.90
6696;DHT22;3385;48.928;10.330;2023-03-29T16:16:53;13.80;99.90
6696;DHT22;3385;48.928;10.330;2023-03-29T16:19:20;13.70;99.90
6696;DHT22;3385;48.928;10.330;2023-03-29T16:21:46;13.80;99.90
6696;DHT22;3385;48.928;10.330;2023-03-29T16:24:15;13.50;99.90
6696;DHT22;3385;48.928;10.330;2023-03-29T16:26:42;13.70;99.90
6696;DHT22;3385;48.928;10.330;2023-03-29T16:29:08;13.60;99.90
6696;DHT22;3385;48.928;10.330;2023-03-29T16:31:34;13.40;99.90
6696;DHT22;3385;48.928;10.330;2023-03-29T16:34:01;13.20;99.90
6696;DHT22;3385;48.928;10.330;2023-03-29T16:36:26;13.20;99.90
6696;DHT22;3385;48.928;10.330;2023-03-29T16:38:55;13.20;99.90
6696;DHT22;3385;48.928;10.330;2023-03-29T16:41:21;13.30;99.90
6696;DHT22;3385;48.928;10.330;2023-03-29T16:43:47;13.20;99.90
6696;DHT22;3385;48.928;10.330;2023-03-29T16:46:13;13.40;99.90
6696;DHT22;3385;48.928;10.330;2023-03-29T16:48:40;13.50;99.90
6696;DHT22;3385;48.928;10.330;2023-03-29T16:51:07;13.10;99.90
6696;DHT22;3385;48.928;10.330;2023-03-29T16:53:34;13.20;99.90
6696;DHT22;3385;48.928;10.330;2023-03-29T16:56:00;13.40;99.90
6696;DHT22;3385;48.928;10.330;2023-03-29T16:58:27;13.10;99.90
6696;DHT22;3385;48.928;10.330;2023-03-29T17:00:53;12.90;99.90
6696;DHT22;3385;48.928;10.330;2023-03-29T17:03:20;12.90;99.90
6696;DHT22;3385;48.928;10.330;2023-03-29T17:05:55;12.60;99.90
6696;DHT22;3385;48.928;10.330;2023-03-29T17:08:22;12.90;99.90
6696;DHT22;3385;48.928;10.330;2023-03-29T17:10:52;12.80;99.90
6696;DHT22;3385;48.928;10.330;2023-03-29T17:13:18;12.60;99.90
6696;DHT22;3385;48.928;10.330;2023-03-29T17:15:45;12.60;99.90
6696;DHT22;3385;48.928;10.330;2023-03-29T17:18:10;12.60;99.90
6696;DHT22;3385;48.928;10.330;2023-03-29T17:20:38;12.60;99.90
6696;DHT22;3385;48.928;10.330;2023-03-29T17:23:04;12.50;99.90
6696;DHT22;3385;48.928;10.330;2023-03-29T17:25:30;12.50;99.90
6696;DHT22;3385;48.928;10.330;2023-03-29T17:27:56;8.90;99.90
6696;DHT22;3385;48.928;10.330;2023-03-29T17:30:21;12.40;99.90
6696;DHT22;3385;48.928;10.330;2023-03-29T17:32:47;12.30;99.90
6696;DHT22;3385;48.928;10.330;2023-03-29T17:35:13;12.40;99.90
6696;DHT22;3385;48.928;10.330;2023-03-29T17:37:39;12.10;99.90
6696;DHT22;3385;48.928;10.330;2023-03-29T17:40:06;12.10;99.90
6696;DHT22;3385;48.928;10.330;2023-03-29T17:42:41;12.20;99.90
6696;DHT22;3385;48.928;10.330;2023-03-29T17:45:08;12.00;99.90
6696;DHT22;3385;48.928;10.330;2023-03-29T17:47:34;12.00;99.90
6696;DHT22;3385;48.928;10.330;2023-03-29T17:50:00;12.00;99.90
6696;DHT22;3385;48.928;10.330;2023-03-29T17:52:26;12.00;99.90
6696;DHT22;3385;48.928;10.330;2023-03-29T17:54:51;12.00;99.90
6696;DHT22;3385;48.928;10.330;2023-03-29T17:57:17;11.90;99.90
6696;DHT22;3385;48.928;10.330;2023-03-29T17:59:43;12.00;99.90
6696;DHT22;3385;48.928;10.330;2023-03-29T18:02:29;11.90;99.90
6696;DHT22;3385;48.928;10.330;2023-03-29T18:04:55;11.90;99.90
6696;DHT22;3385;48.928;10.330;2023-03-29T18:07:21;11.80;99.90
6696;DHT22;3385;48.928;10.330;2023-03-29T18:09:48;12.00;99.90
6696;DHT22;3385;48.928;10.330;2023-03-29T18:12:15;11.80;99.90
6696;DHT22;3385;48.928;10.330;2023-03-29T18:14:41;11.70;99.90
6696;DHT22;3385;48.928;10.330;2023-03-29T18:17:06;11.70;99.90
6696;DHT22;3385;48.928;10.330;2023-03-29T18:19:32;11.70;99.90
6696;DHT22;3385;48.928;10.330;2023-03-29T18:21:58;11.50;99.90
6696;DHT22;3385;48.928;10.330;2023-03-29T18:24:24;11.50;99.90
6696;DHT22;3385;48.928;10.330;2023-03-29T18:26:49;11.40;99.90
6696;DHT22;3385;48.928;10.330;2023-03-29T18:29:15;11.40;99.90
6696;DHT22;3385;48.928;10.330;2023-03-29T18:31:41;11.20;99.90
6696;DHT22;3385;48.928;10.330;2023-03-29T18:34:08;10.90;99.90
6696;DHT22;3385;48.928;10.330;2023-03-29T18:36:33;11.00;99.90
6696;DHT22;3385;48.928;10.330;2023-03-29T18:39:00;11.00;99.90
6696;DHT22;3385;48.928;10.330;2023-03-29T18:41:33;10.90;99.90
6696;DHT22;3385;48.928;10.330;2023-03-29T18:44:02;10.90;99.90
6696;DHT22;3385;48.928;10.330;2023-03-29T18:46:28;10.80;99.90
6696;DHT22;3385;48.928;10.330;2023-03-29T18:48:59;10.80;99.90
6696;DHT22;3385;48.928;10.330;2023-03-29T18:51:25;10.90;99.90
6696;DHT22;3385;48.928;10.330;2023-03-29T18:53:53;10.70;99.90
6696;DHT22;3385;48.928;10.330;2023-03-29T18:56:19;10.60;99.90
6696;DHT22;3385;48.928;10.330;2023-03-29T18:58:45;10.60;99.90
6696;DHT22;3385;48.928;10.330;2023-03-29T19:01:11;10.60;99.90
6696;DHT22;3385;48.928;10.330;2023-03-29T19:03:38;10.50;99.90
6696;DHT22;3385;48.928;10.330;2023-03-29T19:06:05;10.40;99.90
6696;DHT22;3385;48.928;10.330;2023-03-29T19:08:32;10.40;99.90
6696;DHT22;3385;48.928;10.330;2023-03-29T19:11:05;10.40;99.90
6696;DHT22;3385;48.928;10.330;2023-03-29T19:13:32;10.50;99.90
6696;DHT22;3385;48.928;10.330;2023-03-29T19:15:59;10.40;99.90
6696;DHT22;3385;48.928;10.330;2023-03-29T19:18:25;10.40;99.90
6696;DHT22;3385;48.928;10.330;2023-03-29T19:20:51;10.20;99.90
6696;DHT22;3385;48.928;10.330;2023-03-29T19:23:19;10.60;99.90
6696;DHT22;3385;48.928;10.330;2023-03-29T19:25:56;12.20;99.90
6696;DHT22;3385;48.928;10.330;2023-03-29T19:28:22;10.30;99.90
6696;DHT22;3385;48.928;10.330;2023-03-29T19:30:48;10.30;99.90
6696;DHT22;3385;48.928;10.330;2023-03-29T19:33:14;12.80;99.90
6696;DHT22;3385;48.928;10.330;2023-03-29T19:35:41;10.20;99.90
6696;DHT22;3385;48.928;10.330;2023-03-29T19:38:07;10.30;99.90
6696;DHT22;3385;48.928;10.330;2023-03-29T19:40:33;10.20;99.90
6696;DHT22;3385;48.928;10.330;2023-03-29T19:42:59;9.90;99.90
6696;DHT22;3385;48.928;10.330;2023-03-29T19:45:25;10.10;99.90
6696;DHT22;3385;48.928;10.330;2023-03-29T19:47:56;10.10;99.90
6696;DHT22;3385;48.928;10.330;2023-03-29T19:50:22;10.10;99.90
6696;DHT22;3385;48.928;10.330;2023-03-29T19:52:48;10.00;99.90
6696;DHT22;3385;48.928;10.330;2023-03-29T19:55:14;10.30;99.90
6696;DHT22;3385;48.928;10.330;2023-03-29T19:57:40;10.50;99.90
6696;DHT22;3385;48.928;10.330;2023-03-29T20:00:07;10.50;99.90
6696;DHT22;3385;48.928;10.330;2023-03-29T20:02:35;10.50;99.90
6696;DHT22;3385;48.928;10.330;2023-03-29T20:05:01;10.60;99.90
6696;DHT22;3385;48.928;10.330;2023-03-29T20:07:27;10.60;99.90
6696;DHT22;3385;48.928;10.330;2023-03-29T20:09:53;10.50;99.90
6696;DHT22;3385;48.928;10.330;2023-03-29T20:12:18;10.60;99.90
6696;DHT22;3385;48.928;10.330;2023-03-29T20:14:44;10.70;99.90
6696;DHT22;3385;48.928;10.330;2023-03-29T20:17:10;10.70;99.90
6696;DHT22;3385;48.928;10.330;2023-03-29T20:19:36;10.70;99.90
6696;DHT22;3385;48.928;10.330;2023-03-29T20:22:02;10.70;99.90
6696;DHT22;3385;48.928;10.330;2023-03-29T20:24:28;10.80;99.90
6696;DHT22;3385;48.928;10.330;2023-03-29T20:26:55;10.70;99.90
6696;DHT22;3385;48.928;10.330;2023-03-29T20:29:21;10.70;99.90
6696;DHT22;3385;48.928;10.330;2023-03-29T20:31:47;10.70;99.90
6696;DHT22;3385;48.928;10.330;2023-03-29T20:34:12;10.70;99.90
6696;DHT22;3385;48.928;10.330;2023-03-29T20:36:38;10.70;99.90
6696;DHT22;3385;48.928;10.330;2023-03-29T20:39:05;10.90;99.90
6696;DHT22;3385;48.928;10.330;2023-03-29T20:41:32;11.00;99.90
6696;DHT22;3385;48.928;10.330;2023-03-29T20:43:58;11.40;99.90
6696;DHT22;3385;48.928;10.330;2023-03-29T20:46:25;11.40;99.90
6696;DHT22;3385;48.928;10.330;2023-03-29T20:49:01;11.50;99.90
6696;DHT22;3385;48.928;10.330;2023-03-29T20:51:29;11.60;99.90
6696;DHT22;3385;48.928;10.330;2023-03-29T20:54:03;11.60;99.90
6696;DHT22;3385;48.928;10.330;2023-03-29T20:56:31;11.70;99.90
6696;DHT22;3385;48.928;10.330;2023-03-29T20:58:57;11.70;99.90
6696;DHT22;3385;48.928;10.330;2023-03-29T21:01:27;11.90;99.90
6696;DHT22;3385;48.928;10.330;2023-03-29T21:03:54;12.00;99.90
6696;DHT22;3385;48.928;10.330;2023-03-29T21:06:20;12.10;99.90
6696;DHT22;3385;48.928;10.330;2023-03-29T21:08:49;12.30;99.90
6696;DHT22;3385;48.928;10.330;2023-03-29T21:11:17;12.00;99.90
6696;DHT22;3385;48.928;10.330;2023-03-29T21:13:43;11.80;99.90
6696;DHT22;3385;48.928;10.330;2023-03-29T21:16:10;12.10;99.90
6696;DHT22;3385;48.928;10.330;2023-03-29T21:18:38;11.90;99.90
6696;DHT22;3385;48.928;10.330;2023-03-29T21:21:08;12.00;99.90
6696;DHT22;3385;48.928;10.330;2023-03-29T21:23:35;11.90;99.90
6696;DHT22;3385;48.928;10.330;2023-03-29T21:26:01;11.80;99.90
6696;DHT22;3385;48.928;10.330;2023-03-29T21:28:28;11.80;99.90